Time;durP1;ratioP1;P1;durP2;ratioP2;P2;SDS_P1;SDS_P2;PMS_P1;PMS_P2;Temp;Humidity;BMP_temperature;BMP_pressure;BME280_temperature;BME280_humidity;BME280_pressure;Samples;Min_cycle;Max_cycle;Signal;HPM_P1;HPM_P2
2022/10/22 00:01:28;;;;;;;;;;;;;;;;;;5062667;28;20370;-57
2022/10/22 00:03:54;;;;;;;;;;;;;;;;;;5058044;28;19924;-54
2022/10/22 00:06:20;;;;;;;;;;;;;;;;;;5066470;28;19925;-57
2022/10/22 00:08:46;;;;;;;;;;;;;;;;;;5067484;28;19947;-57
2022/10/22 00:11:12;;;;;;;;;;;;;;;;;;5066782;28;19928;-57
2022/10/22 00:13:38;;;;;;;;;;;;;;;;;;5066856;28;19968;-58
2022/10/22 00:16:04;;;;;;;;;;;;;;;;;;5067281;28;20465;-57
2022/10/22 00:18:30;;;;;;;;;;;;;;;;;;5067356;28;19925;-57
2022/10/22 00:20:56;;;;;;;;;;;;;;;;;;5066325;28;20393;-57
2022/10/22 00:23:22;;;;;;;;;;;;;;;;;;5067609;28;19960;-57
2022/10/22 00:25:48;;;;;;;;;;;;;;;;;;5066941;28;20370;-57
2022/10/22 00:28:14;;;;;;;;;;;;;;;;;;5066395;28;19948;-57
2022/10/22 00:30:40;;;;;;;;;;;;;;;;;;5067406;28;20286;-57
2022/10/22 00:33:06;;;;;;;;;;;;;;;;;;5066691;28;20377;-58
2022/10/22 00:35:32;;;;;;;;;;;;;;;;;;5066264;28;20010;-58
2022/10/22 00:37:58;;;;;;;;;;;;;;;;;;5066681;28;20374;-57
2022/10/22 00:40:24;;;;;;;;;;;;;;;;;;5066876;28;19924;-56
2022/10/22 00:42:50;;;;;;;;;;;;;;;;;;5066551;28;19924;-57
2022/10/22 00:45:16;;;;;;;;;;;;;;;;;;5066532;28;19963;-57
2022/10/22 00:47:42;;;;;;;;;;;;;;;;;;5062840;28;19924;-57
2022/10/22 00:50:08;;;;;;;;;;;;;;;;;;5054480;28;19924;-56
2022/10/22 00:52:34;;;;;;;;;;;;;;;;;;5066687;28;20651;-58
2022/10/22 00:55:00;;;;;;;;;;;;;;;;;;5066417;28;19948;-57
2022/10/22 00:57:26;;;;;;;;;;;;;;;;;;5066904;28;20333;-57
2022/10/22 00:59:52;;;;;;;;;;;;;;;;;;5066748;28;20085;-57
2022/10/22 01:02:18;;;;;;;;;;;;;;;;;;5066787;28;20386;-57
2022/10/22 01:04:43;;;;;;;;;;;;;;;;;;5066601;28;19924;-57
2022/10/22 01:07:09;;;;;;;;;;;;;;;;;;5065775;28;19924;-57
2022/10/22 01:09:35;;;;;;;;;;;;;;;;;;5066436;28;19990;-57
2022/10/22 01:12:01;;;;;;;;;;;;;;;;;;5065835;28;19969;-57
2022/10/22 01:14:27;;;;;;;;;;;;;;;;;;5066971;28;19924;-57
2022/10/22 01:16:53;;;;;;;;;;;;;;;;;;5066892;28;19921;-58
2022/10/22 01:19:19;;;;;;;;;;;;;;;;;;5066332;28;20413;-57
2022/10/22 01:21:45;;;;;;;;;;;;;;;;;;5065897;28;19924;-54
2022/10/22 01:24:11;;;;;;;;;;;;;;;;;;5065036;28;20297;-57
2022/10/22 01:26:37;;;;;;;;;;;;;;;;;;5066265;28;19928;-57
2022/10/22 01:29:03;;;;;;;;;;;;;;;;;;5066703;28;20567;-57
2022/10/22 01:31:29;;;;;;;;;;;;;;;;;;5066735;28;19925;-56
2022/10/22 01:33:55;;;;;;;;;;;;;;;;;;5069596;28;19931;-57
2022/10/22 01:36:21;;;;;;;;;;;;;;;;;;5069431;28;20298;-57
2022/10/22 01:38:47;;;;;;;;;;;;;;;;;;5070256;28;19971;-57
2022/10/22 01:41:13;;;;;;;;;;;;;;;;;;5060186;28;20303;-57
2022/10/22 01:43:39;;;;;;;;;;;;;;;;;;5065849;28;20589;-57
2022/10/22 01:46:05;;;;;;;;;;;;;;;;;;5069944;28;19931;-58
2022/10/22 01:48:31;;;;;;;;;;;;;;;;;;5060336;28;19964;-56
2022/10/22 01:50:57;;;;;;;;;;;;;;;;;;5064084;28;20381;-59
2022/10/22 01:53:23;;;;;;;;;;;;;;;;;;5070254;28;19970;-55
2022/10/22 01:55:49;;;;;;;;;;;;;;;;;;5069966;28;20016;-57
2022/10/22 01:58:15;;;;;;;;;;;;;;;;;;5069710;28;19932;-56
2022/10/22 02:00:41;;;;;;;;;;;;;;;;;;5063594;28;19925;-57
2022/10/22 02:03:07;;;;;;;;;;;;;;;;;;5066062;28;20011;-57
2022/10/22 02:05:33;;;;;;;;;;;;;;;;;;5068933;28;19924;-57
2022/10/22 02:07:59;;;;;;;;;;;;;;;;;;5069543;28;20424;-57
2022/10/22 02:10:25;;;;;;;;;;;;;;;;;;5069317;28;19944;-57
2022/10/22 02:12:51;;;;;;;;;;;;;;;;;;5069390;28;19924;-56
2022/10/22 02:15:17;;;;;;;;;;;;;;;;;;5069351;28;19971;-57
2022/10/22 02:17:43;;;;;;;;;;;;;;;;;;5069645;28;19970;-57
2022/10/22 02:20:09;;;;;;;;;;;;;;;;;;5068542;28;20275;-58
2022/10/22 02:22:36;;;;;;;;;;;;;;;;;;5069310;28;19932;-57
2022/10/22 02:25:01;;;;;;;;;;;;;;;;;;5068460;28;20377;-56
2022/10/22 02:27:27;;;;;;;;;;;;;;;;;;5069540;28;19931;-57
2022/10/22 02:29:53;;;;;;;;;;;;;;;;;;5068347;28;19924;-58
2022/10/22 02:32:19;;;;;;;;;;;;;;;;;;5069351;28;19928;-57
2022/10/22 02:34:45;;;;;;;;;;;;;;;;;;5069351;28;20071;-57
2022/10/22 02:37:11;;;;;;;;;;;;;;;;;;5068275;28;19985;-58
2022/10/22 02:39:37;;;;;;;;;;;;;;;;;;5068768;28;19931;-57
2022/10/22 02:42:03;;;;;;;;;;;;;;;;;;5068669;28;19931;-57
2022/10/22 02:44:29;;;;;;;;;;;;;;;;;;5068784;28;19925;-58
2022/10/22 02:46:55;;;;;;;;;;;;;;;;;;5069501;28;19929;-58
2022/10/22 02:49:21;;;;;;;;;;;;;;;;;;5054520;28;19947;-57
2022/10/22 02:51:47;;;;;;;;;;;;;;;;;;5067552;28;19928;-57
2022/10/22 02:54:13;;;;;;;;;;;;;;;;;;5068108;28;19924;-57
2022/10/22 02:56:39;;;;;;;;;;;;;;;;;;5069185;28;19924;-57
2022/10/22 02:59:05;;;;;;;;;;;;;;;;;;5068852;28;19924;-58
2022/10/22 03:01:31;;;;;;;;;;;;;;;;;;5059492;28;20339;-56
2022/10/22 03:03:57;;;;;;;;;;;;;;;;;;5067336;28;19925;-57
2022/10/22 03:06:23;;;;;;;;;;;;;;;;;;5062397;28;20351;-56
2022/10/22 03:08:49;;;;;;;;;;;;;;;;;;5050444;28;19956;-57
2022/10/22 03:11:15;;;;;;;;;;;;;;;;;;5059760;28;19925;-57
2022/10/22 03:13:41;;;;;;;;;;;;;;;;;;5048988;28;20396;-58
2022/10/22 03:16:07;;;;;;;;;;;;;;;;;;5068539;28;19931;-57
2022/10/22 03:18:33;;;;;;;;;;;;;;;;;;5068591;28;19928;-55
2022/10/22 03:20:59;;;;;;;;;;;;;;;;;;5048894;28;19928;-57
2022/10/22 03:23:25;;;;;;;;;;;;;;;;;;5048342;28;19998;-57
2022/10/22 03:25:51;;;;;;;;;;;;;;;;;;5057493;28;19932;-57
2022/10/22 03:28:17;;;;;;;;;;;;;;;;;;5068263;28;19928;-58
2022/10/22 03:30:43;;;;;;;;;;;;;;;;;;5067962;28;20069;-56
2022/10/22 03:33:09;;;;;;;;;;;;;;;;;;5067346;28;20018;-57
2022/10/22 03:35:35;;;;;;;;;;;;;;;;;;5067315;28;19931;-57
2022/10/22 03:38:01;;;;;;;;;;;;;;;;;;5049108;28;19925;-57
2022/10/22 03:40:27;;;;;;;;;;;;;;;;;;5048211;28;20502;-57
2022/10/22 03:42:53;;;;;;;;;;;;;;;;;;5064398;28;19924;-58
2022/10/22 03:45:19;;;;;;;;;;;;;;;;;;5067725;28;19924;-57
2022/10/22 03:47:45;;;;;;;;;;;;;;;;;;5067418;28;20007;-57
2022/10/22 03:50:11;;;;;;;;;;;;;;;;;;5066746;28;19924;-58
2022/10/22 03:52:37;;;;;;;;;;;;;;;;;;5067015;28;20702;-58
2022/10/22 03:55:03;;;;;;;;;;;;;;;;;;5066916;28;19974;-57
2022/10/22 03:57:29;;;;;;;;;;;;;;;;;;5067558;28;20011;-58
2022/10/22 03:59:55;;;;;;;;;;;;;;;;;;5067818;28;20382;-58
2022/10/22 04:02:21;;;;;;;;;;;;;;;;;;5066896;28;19969;-56
2022/10/22 04:04:47;;;;;;;;;;;;;;;;;;5066890;28;20617;-57
2022/10/22 04:07:13;;;;;;;;;;;;;;;;;;5067118;28;19931;-57
2022/10/22 04:09:39;;;;;;;;;;;;;;;;;;5067172;28;19924;-57
2022/10/22 04:12:06;;;;;;;;;;;;;;;;;;5049355;28;20015;-58
2022/10/22 04:14:32;;;;;;;;;;;;;;;;;;5057076;28;19928;-58
2022/10/22 04:16:58;;;;;;;;;;;;;;;;;;5066654;28;19924;-58
2022/10/22 04:19:24;;;;;;;;;;;;;;;;;;5067563;28;19970;-57
2022/10/22 04:21:50;;;;;;;;;;;;;;;;;;5065916;28;20322;-57
2022/10/22 04:24:16;;;;;;;;;;;;;;;;;;5066822;28;19982;-57
2022/10/22 04:26:42;;;;;;;;;;;;;;;;;;5067040;28;19924;-57
2022/10/22 04:29:08;;;;;;;;;;;;;;;;;;5066622;28;19924;-57
2022/10/22 04:31:34;;;;;;;;;;;;;;;;;;5056919;28;19925;-57
2022/10/22 04:34:00;;;;;;;;;;;;;;;;;;5066618;28;19935;-55
2022/10/22 04:36:26;;;;;;;;;;;;;;;;;;5065993;28;19934;-57
2022/10/22 04:38:52;;;;;;;;;;;;;;;;;;5067418;28;19983;-57
2022/10/22 04:41:18;;;;;;;;;;;;;;;;;;5066692;28;19976;-58
2022/10/22 04:43:44;;;;;;;;;;;;;;;;;;5065681;28;19924;-57
2022/10/22 04:46:10;;;;;;;;;;;;;;;;;;5066516;28;19925;-57
2022/10/22 04:48:36;;;;;;;;;;;;;;;;;;5067020;28;19931;-58
2022/10/22 04:51:02;;;;;;;;;;;;;;;;;;5065175;28;19924;-57
2022/10/22 04:53:28;;;;;;;;;;;;;;;;;;5066877;28;19924;-57
2022/10/22 04:55:54;;;;;;;;;;;;;;;;;;5067102;28;20021;-56
2022/10/22 04:58:20;;;;;;;;;;;;;;;;;;5066740;28;19930;-56
2022/10/22 05:00:46;;;;;;;;;;;;;;;;;;5066921;28;19947;-57
2022/10/22 05:03:12;;;;;;;;;;;;;;;;;;5066634;28;20282;-56
2022/10/22 05:05:38;;;;;;;;;;;;;;;;;;5065974;28;20003;-57
2022/10/22 05:08:04;;;;;;;;;;;;;;;;;;5069636;28;20394;-56
2022/10/22 05:10:30;;;;;;;;;;;;;;;;;;5066236;28;19932;-57
2022/10/22 05:12:56;;;;;;;;;;;;;;;;;;5061897;28;20054;-58
2022/10/22 05:15:22;;;;;;;;;;;;;;;;;;5070889;28;19925;-56
2022/10/22 05:17:48;;;;;;;;;;;;;;;;;;5071114;28;20388;-56
2022/10/22 05:20:14;;;;;;;;;;;;;;;;;;5069588;28;20009;-57
2022/10/22 05:22:40;;;;;;;;;;;;;;;;;;5070782;28;19972;-58
2022/10/22 05:25:06;;;;;;;;;;;;;;;;;;5070605;28;20386;-58
2022/10/22 05:27:32;;;;;;;;;;;;;;;;;;5069930;28;19931;-57
2022/10/22 05:29:58;;;;;;;;;;;;;;;;;;5069936;28;19920;-57
2022/10/22 05:32:24;;;;;;;;;;;;;;;;;;5070644;28;19972;-57
2022/10/22 05:34:50;;;;;;;;;;;;;;;;;;5069132;28;19966;-56
2022/10/22 05:37:16;;;;;;;;;;;;;;;;;;5069821;28;19931;-58
2022/10/22 05:39:42;;;;;;;;;;;;;;;;;;5070090;28;20002;-56
2022/10/22 05:42:08;;;;;;;;;;;;;;;;;;5069984;28;19925;-57
2022/10/22 05:44:34;;;;;;;;;;;;;;;;;;5069960;28;20011;-58
2022/10/22 05:47:00;;;;;;;;;;;;;;;;;;5069972;28;19952;-57
2022/10/22 05:49:26;;;;;;;;;;;;;;;;;;5069425;28;19924;-56
2022/10/22 05:51:52;;;;;;;;;;;;;;;;;;5069940;28;19924;-58
2022/10/22 05:54:18;;;;;;;;;;;;;;;;;;5064265;28;19944;-58
2022/10/22 05:56:44;;;;;;;;;;;;;;;;;;5049928;28;20346;-58
2022/10/22 05:59:10;;;;;;;;;;;;;;;;;;5062406;28;20442;-57
2022/10/22 06:01:36;;;;;;;;;;;;;;;;;;5066241;28;20015;-57
2022/10/22 06:04:02;;;;;;;;;;;;;;;;;;5068040;28;20031;-56
2022/10/22 06:06:28;;;;;;;;;;;;;;;;;;5057587;28;19986;-58
2022/10/22 06:08:54;;;;;;;;;;;;;;;;;;5061435;28;19932;-58
2022/10/22 06:11:20;;;;;;;;;;;;;;;;;;5063669;28;19994;-57
2022/10/22 06:17:04;;;;;;;;;;;;;;;;;;5061585;28;20003;-58
2022/10/22 06:19:30;;;;;;;;;;;;;;;;;;5059753;28;19928;-58
2022/10/22 06:21:56;;;;;;;;;;;;;;;;;;5064206;28;20670;-58
2022/10/22 06:24:22;;;;;;;;;;;;;;;;;;5065810;28;19928;-56
2022/10/22 06:26:49;;;;;;;;;;;;;;;;;;5066658;28;19966;-56
2022/10/22 06:29:15;;;;;;;;;;;;;;;;;;5060110;28;19924;-57
2022/10/22 06:31:41;;;;;;;;;;;;;;;;;;5058028;28;20012;-57
2022/10/22 06:34:07;;;;;;;;;;;;;;;;;;5049292;28;19935;-56
2022/10/22 06:36:33;;;;;;;;;;;;;;;;;;5059134;28;20496;-57
2022/10/22 06:38:59;;;;;;;;;;;;;;;;;;5048380;28;19925;-58
2022/10/22 06:41:25;;;;;;;;;;;;;;;;;;5048869;28;19932;-57
2022/10/22 06:43:51;;;;;;;;;;;;;;;;;;5042713;28;20378;-57
2022/10/22 06:46:17;;;;;;;;;;;;;;;;;;5049816;28;19933;-57
2022/10/22 06:48:43;;;;;;;;;;;;;;;;;;5045343;28;19971;-56
2022/10/22 06:51:09;;;;;;;;;;;;;;;;;;5047557;28;19931;-56
2022/10/22 06:53:35;;;;;;;;;;;;;;;;;;5047580;28;19979;-55
2022/10/22 06:56:01;;;;;;;;;;;;;;;;;;5058158;28;19975;-57
2022/10/22 06:58:27;;;;;;;;;;;;;;;;;;5056879;28;19979;-56
2022/10/22 07:00:53;;;;;;;;;;;;;;;;;;5059236;28;19971;-58
2022/10/22 07:03:19;;;;;;;;;;;;;;;;;;5051324;28;20007;-57
2022/10/22 07:05:45;;;;;;;;;;;;;;;;;;5055937;28;19928;-58
2022/10/22 07:08:11;;;;;;;;;;;;;;;;;;5054941;28;19929;-57
2022/10/22 07:10:37;;;;;;;;;;;;;;;;;;5052608;28;19955;-57
2022/10/22 07:13:03;;;;;;;;;;;;;;;;;;5057672;28;19932;-57
2022/10/22 07:15:29;;;;;;;;;;;;;;;;;;5061088;28;19930;-57
2022/10/22 07:17:55;;;;;;;;;;;;;;;;;;5060232;28;20362;-57
2022/10/22 07:20:21;;;;;;;;;;;;;;;;;;5061779;28;19935;-57
2022/10/22 07:22:47;;;;;;;;;;;;;;;;;;5062918;28;19925;-56
2022/10/22 07:25:13;;;;;;;;;;;;;;;;;;5062408;28;20015;-56
2022/10/22 07:27:39;;;;;;;;;;;;;;;;;;5061913;28;19929;-57
2022/10/22 07:30:05;;;;;;;;;;;;;;;;;;5060436;28;20693;-57
2022/10/22 07:32:31;;;;;;;;;;;;;;;;;;5056751;28;19986;-58
2022/10/22 07:34:57;;;;;;;;;;;;;;;;;;5059809;28;19935;-56
2022/10/22 07:37:23;;;;;;;;;;;;;;;;;;5062790;28;19925;-57
2022/10/22 07:39:49;;;;;;;;;;;;;;;;;;5063183;28;19939;-55
2022/10/22 07:42:15;;;;;;;;;;;;;;;;;;5058721;28;19925;-57
2022/10/22 07:44:41;;;;;;;;;;;;;;;;;;5061262;28;20389;-56
2022/10/22 07:47:07;;;;;;;;;;;;;;;;;;5046602;28;20023;-56
2022/10/22 07:49:33;;;;;;;;;;;;;;;;;;5043916;28;19929;-56
2022/10/22 07:51:59;;;;;;;;;;;;;;;;;;5044742;28;19932;-56
2022/10/22 07:54:25;;;;;;;;;;;;;;;;;;5045600;28;19929;-56
2022/10/22 07:56:51;;;;;;;;;;;;;;;;;;5045295;28;20360;-56
2022/10/22 07:59:17;;;;;;;;;;;;;;;;;;5076525;28;19936;-56
2022/10/22 08:01:45;;;;;;;;;;;;;;;;;;5076627;28;20425;-57
2022/10/22 08:04:11;;;;;;;;;;;;;;;;;;5050223;28;19932;-56
2022/10/22 08:06:38;;;;;;;;;;;;;;;;;;5050088;28;19928;-56
2022/10/22 08:09:04;;;;;;;;;;;;;;;;;;5050345;28;20446;-56
2022/10/22 08:11:32;;;;;;;;;;;;;;;;;;5051979;28;19935;-55
2022/10/22 08:13:58;;;;;;;;;;;;;;;;;;5063971;28;19944;-57
2022/10/22 08:16:24;;;;;;;;;;;;;;;;;;5065214;28;19931;-56
2022/10/22 08:18:50;;;;;;;;;;;;;;;;;;5064917;28;19928;-56
2022/10/22 08:21:16;;;;;;;;;;;;;;;;;;5064250;28;19975;-57
2022/10/22 08:23:42;;;;;;;;;;;;;;;;;;5060053;28;20384;-56
2022/10/22 08:26:08;;;;;;;;;;;;;;;;;;5064621;28;19928;-56
2022/10/22 08:28:35;;;;;;;;;;;;;;;;;;5064810;28;19925;-55
2022/10/22 08:31:01;;;;;;;;;;;;;;;;;;5054935;28;20398;-55
2022/10/22 08:33:27;;;;;;;;;;;;;;;;;;5044357;28;19932;-55
2022/10/22 08:35:54;;;;;;;;;;;;;;;;;;5043579;28;19932;-56
2022/10/22 08:38:20;;;;;;;;;;;;;;;;;;5044461;28;19990;-55
2022/10/22 08:40:46;;;;;;;;;;;;;;;;;;5044531;28;20004;-57
2022/10/22 08:43:12;;;;;;;;;;;;;;;;;;5043742;28;20008;-57
2022/10/22 08:45:38;;;;;;;;;;;;;;;;;;5043906;28;19957;-55
2022/10/22 08:48:04;;;;;;;;;;;;;;;;;;5043923;28;20358;-57
2022/10/22 08:50:30;;;;;;;;;;;;;;;;;;5042823;28;19929;-56
2022/10/22 08:52:57;;;;;;;;;;;;;;;;;;5041833;28;21516;-56
2022/10/22 08:55:23;;;;;;;;;;;;;;;;;;5044859;28;19932;-56
2022/10/22 08:57:49;;;;;;;;;;;;;;;;;;5044198;28;20417;-56
2022/10/22 09:00:15;;;;;;;;;;;;;;;;;;5043065;28;19924;-57
2022/10/22 09:02:41;;;;;;;;;;;;;;;;;;5057581;28;19932;-57
2022/10/22 09:05:07;;;;;;;;;;;;;;;;;;5042848;28;20367;-58
2022/10/22 09:07:33;;;;;;;;;;;;;;;;;;5043946;28;19932;-55
2022/10/22 09:09:59;;;;;;;;;;;;;;;;;;5058395;28;20370;-57
2022/10/22 09:12:25;;;;;;;;;;;;;;;;;;5050504;28;19977;-57
2022/10/22 09:14:51;;;;;;;;;;;;;;;;;;5063718;28;20589;-55
2022/10/22 09:17:17;;;;;;;;;;;;;;;;;;5064283;28;19928;-57
2022/10/22 09:19:43;;;;;;;;;;;;;;;;;;5063597;28;19925;-57
2022/10/22 09:22:09;;;;;;;;;;;;;;;;;;5063842;28;19989;-57
2022/10/22 09:24:35;;;;;;;;;;;;;;;;;;5062720;28;19928;-57
2022/10/22 09:27:01;;;;;;;;;;;;;;;;;;5062345;28;20583;-57
2022/10/22 09:29:27;;;;;;;;;;;;;;;;;;5059042;28;19928;-57
2022/10/22 09:31:53;;;;;;;;;;;;;;;;;;5060258;28;19928;-58
2022/10/22 09:34:19;;;;;;;;;;;;;;;;;;5059959;28;19924;-57
2022/10/22 09:36:45;;;;;;;;;;;;;;;;;;5062450;28;20551;-57
2022/10/22 09:39:11;;;;;;;;;;;;;;;;;;5058292;28;19928;-56
2022/10/22 09:41:37;;;;;;;;;;;;;;;;;;5055777;28;19983;-57
2022/10/22 09:44:03;;;;;;;;;;;;;;;;;;5042730;28;20330;-58
2022/10/22 09:46:29;;;;;;;;;;;;;;;;;;5043557;28;19981;-56
2022/10/22 09:48:55;;;;;;;;;;;;;;;;;;5043820;28;19928;-57
2022/10/22 09:51:21;;;;;;;;;;;;;;;;;;5075534;28;19975;-57
2022/10/22 09:53:47;;;;;;;;;;;;;;;;;;5044544;28;20315;-57
2022/10/22 09:56:13;;;;;;;;;;;;;;;;;;5046104;28;19929;-57
2022/10/22 09:58:39;;;;;;;;;;;;;;;;;;5046916;28;20415;-56
2022/10/22 10:01:05;;;;;;;;;;;;;;;;;;5047648;28;19925;-57
2022/10/22 10:03:36;;;;;;;;;;;;;;;;;;5047675;28;19925;-57
2022/10/22 10:06:02;;;;;;;;;;;;;;;;;;5079761;28;20019;-58
2022/10/22 10:08:28;;;;;;;;;;;;;;;;;;5047499;28;20095;-57
2022/10/22 10:10:54;;;;;;;;;;;;;;;;;;5055198;28;20456;-57
2022/10/22 10:16:36;;;;;;;;;;;;;;;;;;5040749;28;20040;-58
2022/10/22 10:19:02;;;;;;;;;;;;;;;;;;5043560;28;20370;-58
2022/10/22 10:21:28;;;;;;;;;;;;;;;;;;5047631;28;20375;-57
2022/10/22 10:23:54;;;;;;;;;;;;;;;;;;5047016;28;19936;-57
2022/10/22 10:26:20;;;;;;;;;;;;;;;;;;5047475;28;19929;-57
2022/10/22 10:28:46;;;;;;;;;;;;;;;;;;5047236;28;19920;-58
2022/10/22 10:31:12;;;;;;;;;;;;;;;;;;5046996;28;19929;-57
2022/10/22 10:33:38;;;;;;;;;;;;;;;;;;5046045;28;19929;-56
2022/10/22 10:36:04;;;;;;;;;;;;;;;;;;5059268;28;20011;-57
2022/10/22 10:38:30;;;;;;;;;;;;;;;;;;5056284;28;19933;-57
2022/10/22 10:40:56;;;;;;;;;;;;;;;;;;5042184;28;19932;-57
2022/10/22 10:43:22;;;;;;;;;;;;;;;;;;5045568;28;19935;-57
2022/10/22 10:45:48;;;;;;;;;;;;;;;;;;5046739;28;19935;-57
2022/10/22 10:48:14;;;;;;;;;;;;;;;;;;5042667;28;19928;-57
2022/10/22 10:50:40;;;;;;;;;;;;;;;;;;5037814;28;19959;-57
2022/10/22 10:53:06;;;;;;;;;;;;;;;;;;5045480;28;19935;-56
2022/10/22 10:55:32;;;;;;;;;;;;;;;;;;5052532;28;19924;-57
2022/10/22 10:57:59;;;;;;;;;;;;;;;;;;5048049;28;20010;-57
2022/10/22 11:00:26;;;;;;;;;;;;;;;;;;5050054;28;19936;-58
2022/10/22 11:02:52;;;;;;;;;;;;;;;;;;5050095;28;19929;-58
2022/10/22 11:05:18;;;;;;;;;;;;;;;;;;5048293;28;20005;-56
2022/10/22 11:07:44;;;;;;;;;;;;;;;;;;5046808;28;20409;-57
2022/10/22 11:10:10;;;;;;;;;;;;;;;;;;5046088;28;19929;-57
2022/10/22 11:12:36;;;;;;;;;;;;;;;;;;5046192;28;20398;-57
2022/10/22 11:15:02;;;;;;;;;;;;;;;;;;5048798;28;20600;-57
2022/10/22 11:17:28;;;;;;;;;;;;;;;;;;5048164;28;19932;-56
2022/10/22 11:19:54;;;;;;;;;;;;;;;;;;5044882;28;19929;-57
2022/10/22 11:22:20;;;;;;;;;;;;;;;;;;5048760;28;19928;-58
2022/10/22 11:24:49;;;;;;;;;;;;;;;;;;5046238;28;19928;-56
2022/10/22 11:27:15;;;;;;;;;;;;;;;;;;5049224;28;19928;-58
2022/10/22 11:29:41;;;;;;;;;;;;;;;;;;5049270;28;19971;-58
2022/10/22 11:32:07;;;;;;;;;;;;;;;;;;5048114;28;20128;-58
2022/10/22 11:34:33;;;;;;;;;;;;;;;;;;5044378;28;20390;-58
2022/10/22 11:36:59;;;;;;;;;;;;;;;;;;5045281;28;19928;-58
2022/10/22 11:39:25;;;;;;;;;;;;;;;;;;5045343;28;19990;-57
2022/10/22 11:41:51;;;;;;;;;;;;;;;;;;5044517;28;20339;-55
2022/10/22 11:44:17;;;;;;;;;;;;;;;;;;5045060;28;20078;-57
2022/10/22 11:46:43;;;;;;;;;;;;;;;;;;5044514;28;20221;-58
2022/10/22 11:49:09;;;;;;;;;;;;;;;;;;5043681;28;19979;-58
2022/10/22 11:51:35;;;;;;;;;;;;;;;;;;5044822;28;19925;-58
2022/10/22 11:54:01;;;;;;;;;;;;;;;;;;5041653;28;19983;-58
2022/10/22 11:56:27;;;;;;;;;;;;;;;;;;5045037;28;19925;-57
2022/10/22 11:58:53;;;;;;;;;;;;;;;;;;5045179;28;19970;-57
2022/10/22 12:01:19;;;;;;;;;;;;;;;;;;5045001;28;19929;-57
2022/10/22 12:03:45;;;;;;;;;;;;;;;;;;5046229;28;19993;-57
2022/10/22 12:06:12;;;;;;;;;;;;;;;;;;5049859;28;20463;-57
2022/10/22 12:08:38;;;;;;;;;;;;;;;;;;5052240;28;19932;-56
2022/10/22 12:11:04;;;;;;;;;;;;;;;;;;5044891;28;19933;-56
2022/10/22 12:13:30;;;;;;;;;;;;;;;;;;5041915;28;19935;-59
2022/10/22 12:15:56;;;;;;;;;;;;;;;;;;5042663;28;19963;-58
2022/10/22 12:18:22;;;;;;;;;;;;;;;;;;5040290;28;20337;-56
2022/10/22 12:20:48;;;;;;;;;;;;;;;;;;5041747;28;19932;-56
2022/10/22 12:23:14;;;;;;;;;;;;;;;;;;5041254;28;19943;-55
2022/10/22 12:25:40;;;;;;;;;;;;;;;;;;5042604;28;20685;-57
2022/10/22 12:28:06;;;;;;;;;;;;;;;;;;5044855;28;20492;-56
2022/10/22 12:30:33;;;;;;;;;;;;;;;;;;5042115;28;19977;-56
2022/10/22 12:32:59;;;;;;;;;;;;;;;;;;5040963;28;19928;-56
2022/10/22 12:35:25;;;;;;;;;;;;;;;;;;5042160;28;19924;-55
2022/10/22 12:37:52;;;;;;;;;;;;;;;;;;5041969;28;20456;-56
2022/10/22 12:40:18;;;;;;;;;;;;;;;;;;5041367;28;19929;-56
2022/10/22 12:42:44;;;;;;;;;;;;;;;;;;5042797;28;19924;-55
2022/10/22 12:45:10;;;;;;;;;;;;;;;;;;5043020;28;19924;-56
2022/10/22 12:47:36;;;;;;;;;;;;;;;;;;5045703;28;20008;-57
2022/10/22 12:50:02;;;;;;;;;;;;;;;;;;5042492;28;20003;-56
2022/10/22 12:52:28;;;;;;;;;;;;;;;;;;5041321;28;19983;-56
2022/10/22 12:54:54;;;;;;;;;;;;;;;;;;5041546;28;19960;-55
2022/10/22 12:57:20;;;;;;;;;;;;;;;;;;5046541;28;19928;-57
2022/10/22 12:59:46;;;;;;;;;;;;;;;;;;5043610;28;19929;-57
2022/10/22 13:02:12;;;;;;;;;;;;;;;;;;5040956;28;19921;-57
2022/10/22 13:04:38;;;;;;;;;;;;;;;;;;5042683;28;20275;-57
2022/10/22 13:07:04;;;;;;;;;;;;;;;;;;5041537;28;19972;-57
2022/10/22 13:09:30;;;;;;;;;;;;;;;;;;5040739;28;19929;-57
2022/10/22 13:11:58;;;;;;;;;;;;;;;;;;5041770;28;19929;-57
2022/10/22 13:14:24;;;;;;;;;;;;;;;;;;5042906;28;19939;-57
2022/10/22 13:16:49;;;;;;;;;;;;;;;;;;5041852;28;19933;-57
2022/10/22 13:19:15;;;;;;;;;;;;;;;;;;5040377;28;19925;-57
2022/10/22 13:21:41;;;;;;;;;;;;;;;;;;5041672;28;19928;-58
2022/10/22 13:24:07;;;;;;;;;;;;;;;;;;5042143;28;20044;-57
2022/10/22 13:26:34;;;;;;;;;;;;;;;;;;5041019;28;19933;-57
2022/10/22 13:29:00;;;;;;;;;;;;;;;;;;5046624;28;19928;-57
2022/10/22 13:31:26;;;;;;;;;;;;;;;;;;5047113;28;19932;-57
2022/10/22 13:33:52;;;;;;;;;;;;;;;;;;5045836;28;21268;-57
2022/10/22 13:36:18;;;;;;;;;;;;;;;;;;5045824;28;19988;-57
2022/10/22 13:38:44;;;;;;;;;;;;;;;;;;5045221;28;20404;-57
2022/10/22 13:41:10;;;;;;;;;;;;;;;;;;5044669;28;19929;-57
2022/10/22 13:43:36;;;;;;;;;;;;;;;;;;5046197;28;19935;-57
2022/10/22 13:46:02;;;;;;;;;;;;;;;;;;5047266;28;20446;-57
2022/10/22 13:48:28;;;;;;;;;;;;;;;;;;5043911;28;19986;-56
2022/10/22 13:50:54;;;;;;;;;;;;;;;;;;5047111;28;20020;-57
2022/10/22 13:53:20;;;;;;;;;;;;;;;;;;5046193;28;19925;-56
2022/10/22 13:55:46;;;;;;;;;;;;;;;;;;5047895;28;19994;-57
2022/10/22 13:58:12;;;;;;;;;;;;;;;;;;5045255;28;19928;-56
2022/10/22 14:00:38;;;;;;;;;;;;;;;;;;5043722;28;19925;-57
2022/10/22 14:03:04;;;;;;;;;;;;;;;;;;5043224;28;19927;-57
2022/10/22 14:05:31;;;;;;;;;;;;;;;;;;5049395;28;20015;-56
2022/10/22 14:07:57;;;;;;;;;;;;;;;;;;5046100;28;19935;-58
2022/10/22 14:10:23;;;;;;;;;;;;;;;;;;5044152;28;19928;-56
2022/10/22 14:12:49;;;;;;;;;;;;;;;;;;5045947;28;20434;-56
2022/10/22 14:15:15;;;;;;;;;;;;;;;;;;5046464;28;19932;-56
2022/10/22 14:17:41;;;;;;;;;;;;;;;;;;5043772;28;20541;-56
2022/10/22 14:20:07;;;;;;;;;;;;;;;;;;5045115;28;20302;-56
2022/10/22 14:22:33;;;;;;;;;;;;;;;;;;5047326;28;20084;-56
2022/10/22 14:24:59;;;;;;;;;;;;;;;;;;5045876;28;20486;-56
2022/10/22 14:27:25;;;;;;;;;;;;;;;;;;5046173;28;20067;-56
2022/10/22 14:29:51;;;;;;;;;;;;;;;;;;5043162;28;19974;-56
2022/10/22 14:32:19;;;;;;;;;;;;;;;;;;5058073;28;19924;-56
2022/10/22 14:34:45;;;;;;;;;;;;;;;;;;5042987;28;19929;-56
2022/10/22 14:37:11;;;;;;;;;;;;;;;;;;5042692;28;19929;-56
2022/10/22 14:39:38;;;;;;;;;;;;;;;;;;5045807;28;19982;-57
2022/10/22 14:42:04;;;;;;;;;;;;;;;;;;5043303;28;19928;-57
2022/10/22 14:44:30;;;;;;;;;;;;;;;;;;5044006;28;19946;-57
2022/10/22 14:46:56;;;;;;;;;;;;;;;;;;5042729;28;19928;-56
2022/10/22 14:49:22;;;;;;;;;;;;;;;;;;5042012;28;19928;-56
2022/10/22 14:51:48;;;;;;;;;;;;;;;;;;5042875;28;20031;-57
2022/10/22 14:54:14;;;;;;;;;;;;;;;;;;5043844;28;20019;-56
2022/10/22 14:56:40;;;;;;;;;;;;;;;;;;5043324;28;19932;-56
2022/10/22 14:59:06;;;;;;;;;;;;;;;;;;5041697;28;19951;-55
2022/10/22 15:01:32;;;;;;;;;;;;;;;;;;5043324;28;19999;-57
2022/10/22 15:03:58;;;;;;;;;;;;;;;;;;5041856;28;19940;-56
2022/10/22 15:06:24;;;;;;;;;;;;;;;;;;5043226;28;19986;-56
2022/10/22 15:08:50;;;;;;;;;;;;;;;;;;5045163;28;19924;-57
2022/10/22 15:11:16;;;;;;;;;;;;;;;;;;5049000;28;19936;-56
2022/10/22 15:13:42;;;;;;;;;;;;;;;;;;5048657;28;19924;-56
2022/10/22 15:16:08;;;;;;;;;;;;;;;;;;5045736;28;19924;-56
2022/10/22 15:18:34;;;;;;;;;;;;;;;;;;5049043;28;20046;-56
2022/10/22 15:21:00;;;;;;;;;;;;;;;;;;5046485;28;20382;-55
2022/10/22 15:23:26;;;;;;;;;;;;;;;;;;5048540;28;20256;-57
2022/10/22 15:25:52;;;;;;;;;;;;;;;;;;5048516;28;20343;-55
2022/10/22 15:28:18;;;;;;;;;;;;;;;;;;5048566;28;19943;-57
2022/10/22 15:30:44;;;;;;;;;;;;;;;;;;5048221;28;19924;-55
2022/10/22 15:33:10;;;;;;;;;;;;;;;;;;5047811;28;19934;-56
2022/10/22 15:35:36;;;;;;;;;;;;;;;;;;5049136;28;19925;-56
2022/10/22 15:38:05;;;;;;;;;;;;;;;;;;5045921;28;20638;-56
2022/10/22 15:40:31;;;;;;;;;;;;;;;;;;5047109;28;19979;-56
2022/10/22 15:42:57;;;;;;;;;;;;;;;;;;5046993;28;20282;-57
2022/10/22 15:45:23;;;;;;;;;;;;;;;;;;5049444;28;19928;-57
2022/10/22 15:47:49;;;;;;;;;;;;;;;;;;5047209;28;19991;-56
2022/10/22 15:50:15;;;;;;;;;;;;;;;;;;5047147;28;19975;-57
2022/10/22 15:52:41;;;;;;;;;;;;;;;;;;5044303;28;19925;-56
2022/10/22 15:55:09;;;;;;;;;;;;;;;;;;5044710;28;19931;-56
2022/10/22 15:57:35;;;;;;;;;;;;;;;;;;5037649;28;19979;-56
2022/10/22 16:00:01;;;;;;;;;;;;;;;;;;5050354;28;19924;-56
2022/10/22 16:02:27;;;;;;;;;;;;;;;;;;5050105;28;19925;-56
2022/10/22 16:04:53;;;;;;;;;;;;;;;;;;5044437;28;19969;-55
2022/10/22 16:07:19;;;;;;;;;;;;;;;;;;5057103;28;19931;-57
2022/10/22 16:09:45;;;;;;;;;;;;;;;;;;5053706;28;19928;-56
2022/10/22 16:12:11;;;;;;;;;;;;;;;;;;5057848;28;19924;-56
2022/10/22 16:14:37;;;;;;;;;;;;;;;;;;5053856;28;19925;-56
2022/10/22 16:17:03;;;;;;;;;;;;;;;;;;5046808;28;19931;-55
2022/10/22 16:19:29;;;;;;;;;;;;;;;;;;5034432;28;20263;-55
2022/10/22 16:21:55;;;;;;;;;;;;;;;;;;5045679;28;19925;-55
2022/10/22 16:24:21;;;;;;;;;;;;;;;;;;5060510;28;19936;-56
2022/10/22 16:26:47;;;;;;;;;;;;;;;;;;5054617;28;19928;-57
2022/10/22 16:29:13;;;;;;;;;;;;;;;;;;5058480;28;20386;-56
2022/10/22 16:31:39;;;;;;;;;;;;;;;;;;5056232;28;19925;-56
2022/10/22 16:34:05;;;;;;;;;;;;;;;;;;5051666;28;19944;-56
2022/10/22 16:36:31;;;;;;;;;;;;;;;;;;5046234;28;19925;-55
2022/10/22 16:38:57;;;;;;;;;;;;;;;;;;5029634;28;19925;-57
2022/10/22 16:41:23;;;;;;;;;;;;;;;;;;5038198;28;19932;-57
2022/10/22 16:43:49;;;;;;;;;;;;;;;;;;5057142;28;19994;-57